Time;durP1;ratioP1;P1;durP2;ratioP2;P2;SDS_P1;SDS_P2;PMS_P1;PMS_P2;Temp;Humidity;BMP_temperature;BMP_pressure;BME280_temperature;BME280_humidity;BME280_pressure;Samples;Min_cycle;Max_cycle;Signal;HPM_P1;HPM_P2
2021/03/26 00:01:57;;;;;;;217.07;90.80;;;;;;;;;;5073513;28;20199;-82
2021/03/26 00:04:23;;;;;;;212.43;90.13;;;;;;;;;;5074030;28;20261;-82
2021/03/26 00:06:48;;;;;;;207.07;88.93;;;;;;;;;;5074175;28;20262;-83
2021/03/26 00:09:16;;;;;;;216.30;92.93;;;;;;;;;;5074146;28;20171;-83
2021/03/26 00:11:42;;;;;;;194.67;85.50;;;;;;;;;;5074148;28;20171;-83
2021/03/26 00:14:07;;;;;;;201.00;87.93;;;;;;;;;;5073563;28;20676;-83
2021/03/26 00:16:32;;;;;;;198.00;86.97;;;;;;;;;;5073731;28;20167;-83
2021/03/26 00:18:57;;;;;;;214.17;90.63;;;;;;;;;;5074377;28;20175;-83
2021/03/26 00:21:23;;;;;;;210.40;87.60;;;;;;;;;;5073746;28;20217;-83
2021/03/26 00:23:49;;;;;;;213.13;91.13;;;;;;;;;;5074233;28;20195;-83
2021/03/26 00:26:15;;;;;;;216.73;93.40;;;;;;;;;;5073668;28;20636;-83
2021/03/26 00:28:40;;;;;;;250.93;107.00;;;;;;;;;;5073924;28;20167;-83
2021/03/26 00:31:05;;;;;;;261.73;110.07;;;;;;;;;;5073767;28;20522;-85
2021/03/26 00:33:31;;;;;;;271.80;112.30;;;;;;;;;;5074142;28;20610;-83
2021/03/26 00:35:56;;;;;;;254.70;108.13;;;;;;;;;;5074068;28;20175;-83
2021/03/26 00:38:23;;;;;;;256.00;105.20;;;;;;;;;;5074348;28;20170;-83
2021/03/26 00:40:48;;;;;;;274.93;114.30;;;;;;;;;;5073836;28;20202;-83
2021/03/26 00:43:14;;;;;;;263.50;109.67;;;;;;;;;;5073351;28;20233;-83
2021/03/26 00:45:39;;;;;;;277.67;116.37;;;;;;;;;;5073744;28;20175;-83
2021/03/26 00:48:05;;;;;;;278.07;114.20;;;;;;;;;;5073712;28;20179;-83
2021/03/26 00:50:33;;;;;;;254.83;109.10;;;;;;;;;;5074308;28;20486;-83
2021/03/26 00:53:00;;;;;;;272.70;111.17;;;;;;;;;;5073993;28;20194;-83
2021/03/26 00:55:25;;;;;;;249.47;108.07;;;;;;;;;;5073888;28;20688;-83
2021/03/26 00:57:51;;;;;;;275.60;111.30;;;;;;;;;;5073342;28;20183;-83
2021/03/26 01:00:18;;;;;;;260.10;108.80;;;;;;;;;;5073408;28;20222;-83
2021/03/26 01:02:43;;;;;;;274.40;112.17;;;;;;;;;;5073112;28;20553;-83
2021/03/26 01:05:10;;;;;;;268.23;113.47;;;;;;;;;;5074743;28;20186;-81
2021/03/26 01:07:35;;;;;;;264.60;108.70;;;;;;;;;;5075375;28;20199;-82
2021/03/26 01:10:01;;;;;;;252.67;105.63;;;;;;;;;;5074747;28;20656;-83
2021/03/26 01:12:26;;;;;;;257.93;107.40;;;;;;;;;;5073590;28;20499;-83
2021/03/26 01:14:51;;;;;;;240.27;103.27;;;;;;;;;;5073861;28;20190;-83
2021/03/26 01:17:17;;;;;;;234.53;96.90;;;;;;;;;;5073518;28;20277;-83
2021/03/26 01:19:43;;;;;;;215.57;92.40;;;;;;;;;;5073569;28;20274;-83
2021/03/26 01:22:10;;;;;;;214.97;91.03;;;;;;;;;;5073498;28;20213;-82
2021/03/26 01:24:36;;;;;;;217.83;96.07;;;;;;;;;;5076715;28;20179;-82
2021/03/26 01:27:01;;;;;;;218.20;94.47;;;;;;;;;;5077575;28;20168;-83
2021/03/26 01:29:27;;;;;;;224.43;96.47;;;;;;;;;;5077706;28;20224;-83
2021/03/26 01:31:52;;;;;;;236.23;98.50;;;;;;;;;;5077174;28;20529;-83
2021/03/26 01:34:18;;;;;;;228.03;94.63;;;;;;;;;;5076838;28;20167;-83
2021/03/26 01:36:43;;;;;;;215.10;93.03;;;;;;;;;;5077073;28;20179;-82
2021/03/26 01:39:08;;;;;;;205.93;91.10;;;;;;;;;;5077302;28;20174;-82
2021/03/26 01:41:52;;;;;;;217.87;91.43;;;;;;;;;;5076761;28;20167;-83
2021/03/26 01:44:18;;;;;;;210.57;90.80;;;;;;;;;;5077183;28;20182;-83
2021/03/26 01:46:44;;;;;;;196.33;89.53;;;;;;;;;;5076774;28;20285;-83
2021/03/26 01:49:10;;;;;;;214.73;90.67;;;;;;;;;;5076910;28;20221;-83
2021/03/26 01:51:41;;;;;;;210.03;90.23;;;;;;;;;;5077373;28;20167;-83
2021/03/26 01:54:08;;;;;;;204.33;88.83;;;;;;;;;;5077068;28;20236;-83
2021/03/26 01:56:34;;;;;;;199.57;88.93;;;;;;;;;;5076699;28;20172;-83
2021/03/26 01:58:59;;;;;;;215.43;91.20;;;;;;;;;;5076466;28;20230;-83
2021/03/26 02:01:28;;;;;;;199.80;87.97;;;;;;;;;;5075338;28;20263;-83
2021/03/26 02:03:54;;;;;;;204.90;89.43;;;;;;;;;;5076763;28;20206;-83
2021/03/26 02:06:21;;;;;;;195.27;88.43;;;;;;;;;;5076193;28;20228;-83
2021/03/26 02:08:46;;;;;;;209.97;89.43;;;;;;;;;;5076146;28;20617;-83
2021/03/26 02:11:17;;;;;;;203.67;88.73;;;;;;;;;;5076131;28;20266;-83
2021/03/26 02:13:43;;;;;;;184.70;85.00;;;;;;;;;;5075993;28;20183;-83
2021/03/26 02:16:10;;;;;;;205.17;89.67;;;;;;;;;;5076268;28;20175;-84
2021/03/26 02:18:37;;;;;;;206.63;90.53;;;;;;;;;;5076482;28;20167;-84
2021/03/26 02:21:23;;;;;;;194.97;85.37;;;;;;;;;;5075048;28;20175;-83
2021/03/26 02:23:49;;;;;;;200.33;87.63;;;;;;;;;;5075595;28;20256;-83
2021/03/26 02:26:21;;;;;;;196.27;86.93;;;;;;;;;;5076152;28;20171;-83
2021/03/26 02:28:46;;;;;;;193.70;84.60;;;;;;;;;;5076373;28;20606;-83
2021/03/26 02:31:12;;;;;;;198.13;88.00;;;;;;;;;;5076123;28;20197;-83
2021/03/26 02:33:37;;;;;;;206.37;92.03;;;;;;;;;;5076518;28;20178;-83
2021/03/26 02:36:17;;;;;;;205.03;89.30;;;;;;;;;;5074720;28;20228;-83
2021/03/26 02:38:47;;;;;;;200.73;86.90;;;;;;;;;;5075940;28;20206;-82
2021/03/26 02:41:18;;;;;;;190.67;83.17;;;;;;;;;;5076099;28;20518;-83
2021/03/26 02:44:02;;;;;;;190.97;84.63;;;;;;;;;;5075437;28;20199;-83
2021/03/26 02:46:41;;;;;;;181.30;82.97;;;;;;;;;;5076335;28;20175;-83
2021/03/26 02:49:12;;;;;;;198.97;84.50;;;;;;;;;;5074478;28;20171;-83
2021/03/26 02:51:38;;;;;;;201.73;88.43;;;;;;;;;;5075312;28;20167;-83
2021/03/26 02:54:21;;;;;;;199.23;86.23;;;;;;;;;;5075869;28;20240;-83
2021/03/26 02:56:49;;;;;;;207.00;86.47;;;;;;;;;;5075208;28;20182;-83
2021/03/26 02:59:20;;;;;;;197.67;87.30;;;;;;;;;;5075244;28;20265;-82
2021/03/26 03:01:47;;;;;;;185.70;84.53;;;;;;;;;;5076138;28;20164;-83
2021/03/26 03:04:18;;;;;;;199.63;85.60;;;;;;;;;;5075550;28;20167;-82
2021/03/26 03:06:47;;;;;;;198.83;88.20;;;;;;;;;;5075594;28;20171;-83
2021/03/26 03:09:14;;;;;;;208.40;91.33;;;;;;;;;;5075604;28;20167;-83
2021/03/26 03:11:42;;;;;;;198.47;91.10;;;;;;;;;;5075615;28;20559;-83
2021/03/26 03:14:17;;;;;;;196.97;84.80;;;;;;;;;;5075200;28;20256;-81
2021/03/26 03:16:58;;;;;;;186.57;82.77;;;;;;;;;;5075817;28;20171;-81
2021/03/26 03:19:34;;;;;;;186.13;81.30;;;;;;;;;;5075472;28;20160;-82
2021/03/26 03:22:09;;;;;;;188.50;85.63;;;;;;;;;;5075821;28;20163;-83
2021/03/26 03:24:39;;;;;;;181.50;82.63;;;;;;;;;;5075034;28;20178;-83
2021/03/26 03:27:09;;;;;;;184.20;83.67;;;;;;;;;;5075331;28;20521;-83
2021/03/26 03:29:35;;;;;;;195.40;85.33;;;;;;;;;;5075478;28;20167;-83
2021/03/26 03:32:19;;;;;;;198.37;85.50;;;;;;;;;;5075173;28;20577;-83
2021/03/26 03:34:51;;;;;;;197.07;87.23;;;;;;;;;;5073493;28;20177;-83
2021/03/26 03:37:22;;;;;;;189.17;84.63;;;;;;;;;;5074990;28;20170;-83
2021/03/26 03:40:05;;;;;;;196.83;87.90;;;;;;;;;;5074659;28;20250;-83
2021/03/26 03:42:49;;;;;;;222.87;96.87;;;;;;;;;;5075095;28;20206;-83
2021/03/26 03:45:37;;;;;;;209.70;91.93;;;;;;;;;;5074322;28;20644;-83
2021/03/26 03:48:09;;;;;;;208.90;90.47;;;;;;;;;;5074217;28;20255;-83
2021/03/26 03:50:37;;;;;;;202.87;92.43;;;;;;;;;;5074809;28;20163;-83
2021/03/26 03:53:08;;;;;;;217.53;92.73;;;;;;;;;;5074709;28;20289;-83
2021/03/26 03:55:49;;;;;;;218.07;91.43;;;;;;;;;;5074179;28;20630;-83
2021/03/26 03:58:14;;;;;;;220.53;92.60;;;;;;;;;;5074206;28;20587;-83
2021/03/26 04:00:46;;;;;;;197.10;89.57;;;;;;;;;;5074998;28;20219;-83
2021/03/26 04:03:17;;;;;;;205.23;89.57;;;;;;;;;;5074303;28;20195;-83
2021/03/26 04:05:48;;;;;;;205.73;91.27;;;;;;;;;;5073971;28;20183;-83
2021/03/26 04:08:18;;;;;;;208.00;87.57;;;;;;;;;;5072879;28;20175;-83
2021/03/26 04:10:46;;;;;;;195.73;86.93;;;;;;;;;;5074150;28;20171;-83
2021/03/26 04:13:14;;;;;;;197.50;88.17;;;;;;;;;;5074444;28;20323;-84
2021/03/26 04:15:43;;;;;;;210.13;90.73;;;;;;;;;;5073861;28;20199;-84
2021/03/26 04:18:08;;;;;;;204.13;89.17;;;;;;;;;;5074069;28;20174;-84
2021/03/26 04:20:55;;;;;;;206.30;90.60;;;;;;;;;;5073799;28;20167;-84
2021/03/26 04:23:30;;;;;;;198.23;89.27;;;;;;;;;;5074258;28;20602;-84
2021/03/26 04:26:02;;;;;;;203.73;89.43;;;;;;;;;;5074382;28;20178;-84
2021/03/26 04:28:32;;;;;;;196.73;85.77;;;;;;;;;;5074380;28;20287;-84
2021/03/26 04:31:00;;;;;;;196.03;90.07;;;;;;;;;;5074240;28;20624;-84
2021/03/26 04:33:25;;;;;;;205.43;92.63;;;;;;;;;;5073946;28;20535;-83
2021/03/26 04:35:51;;;;;;;207.23;95.03;;;;;;;;;;5074104;28;20245;-83
2021/03/26 04:38:20;;;;;;;195.73;94.43;;;;;;;;;;5073846;28;20258;-83
2021/03/26 04:40:50;;;;;;;207.13;99.03;;;;;;;;;;5073799;28;20189;-83
2021/03/26 04:43:34;;;;;;;208.50;96.17;;;;;;;;;;5074171;28;20660;-83
2021/03/26 04:46:05;;;;;;;229.37;105.50;;;;;;;;;;5073924;28;20178;-83
2021/03/26 04:48:39;;;;;;;259.67;117.60;;;;;;;;;;5074336;28;20225;-83
2021/03/26 04:51:22;;;;;;;276.63;119.43;;;;;;;;;;5074019;28;20175;-83
2021/03/26 04:54:00;;;;;;;248.97;109.50;;;;;;;;;;5072360;28;20198;-83
2021/03/26 04:56:28;;;;;;;263.13;116.03;;;;;;;;;;5074410;28;20237;-83
2021/03/26 04:58:56;;;;;;;276.87;126.73;;;;;;;;;;5075620;28;20273;-83
2021/03/26 05:01:22;;;;;;;286.13;130.47;;;;;;;;;;5077816;28;20171;-83
2021/03/26 05:04:05;;;;;;;232.27;112.40;;;;;;;;;;5078066;28;20195;-83
2021/03/26 05:06:32;;;;;;;223.00;108.00;;;;;;;;;;5078017;28;20191;-83
2021/03/26 05:09:01;;;;;;;228.17;112.17;;;;;;;;;;5077629;28;20167;-83
2021/03/26 05:11:28;;;;;;;206.03;103.53;;;;;;;;;;5077597;28;20171;-83
2021/03/26 05:14:00;;;;;;;206.87;108.07;;;;;;;;;;5077575;28;20175;-83
2021/03/26 05:16:40;;;;;;;214.60;109.43;;;;;;;;;;5077143;28;20644;-83
2021/03/26 05:19:14;;;;;;;205.83;104.97;;;;;;;;;;5077395;28;20178;-82
2021/03/26 05:21:45;;;;;;;179.60;95.07;;;;;;;;;;5077073;28;20262;-83
2021/03/26 05:24:17;;;;;;;177.13;90.70;;;;;;;;;;5077529;28;20195;-83
2021/03/26 05:26:43;;;;;;;172.00;88.73;;;;;;;;;;5077680;28;20562;-82
2021/03/26 05:29:09;;;;;;;165.50;88.37;;;;;;;;;;5077137;28;20172;-82
2021/03/26 05:31:43;;;;;;;161.17;85.70;;;;;;;;;;5077711;28;20198;-82
2021/03/26 05:34:18;;;;;;;174.03;93.17;;;;;;;;;;5077125;28;20257;-83
2021/03/26 05:36:52;;;;;;;153.20;81.13;;;;;;;;;;5077285;28;20167;-83
2021/03/26 05:39:20;;;;;;;180.13;98.27;;;;;;;;;;5077322;28;20162;-83
2021/03/26 05:41:48;;;;;;;152.33;84.77;;;;;;;;;;5077006;28;20172;-83
2021/03/26 05:44:23;;;;;;;157.47;88.60;;;;;;;;;;5075647;28;20218;-83
2021/03/26 05:46:54;;;;;;;152.33;88.73;;;;;;;;;;5076934;28;20249;-84
2021/03/26 05:49:35;;;;;;;148.80;86.40;;;;;;;;;;5076817;28;20155;-84
2021/03/26 05:52:19;;;;;;;140.77;85.43;;;;;;;;;;5077360;28;20236;-84
2021/03/26 05:55:01;;;;;;;145.73;85.77;;;;;;;;;;5076452;28;20244;-84
2021/03/26 05:57:29;;;;;;;171.27;101.93;;;;;;;;;;5076759;28;20164;-84
2021/03/26 06:00:01;;;;;;;153.20;87.93;;;;;;;;;;5076170;28;20223;-84
2021/03/26 06:02:34;;;;;;;143.13;86.27;;;;;;;;;;5076530;28;20198;-84
2021/03/26 06:05:18;;;;;;;145.27;85.73;;;;;;;;;;5076857;28;20167;-84
2021/03/26 06:07:50;;;;;;;142.37;82.00;;;;;;;;;;5076498;28;20174;-84
2021/03/26 06:10:26;;;;;;;196.20;104.77;;;;;;;;;;5076268;28;20216;-84
2021/03/26 06:13:06;;;;;;;193.07;104.10;;;;;;;;;;5076770;28;20653;-84
2021/03/26 06:15:43;;;;;;;161.43;92.67;;;;;;;;;;5076647;28;20159;-84
2021/03/26 06:18:18;;;;;;;170.83;95.97;;;;;;;;;;5076310;28;20209;-84
2021/03/26 06:20:52;;;;;;;167.80;95.33;;;;;;;;;;5076300;28;20175;-84
2021/03/26 06:23:36;;;;;;;154.77;85.77;;;;;;;;;;5075847;28;20194;-83
2021/03/26 06:26:05;;;;;;;161.63;92.27;;;;;;;;;;5074870;28;20179;-83
2021/03/26 06:28:42;;;;;;;181.70;100.03;;;;;;;;;;5074793;28;20182;-84
2021/03/26 06:31:25;;;;;;;184.20;97.70;;;;;;;;;;5076146;28;20598;-84
2021/03/26 06:34:09;;;;;;;154.23;87.50;;;;;;;;;;5075572;28;20209;-84
2021/03/26 06:36:54;;;;;;;166.30;92.47;;;;;;;;;;5075896;28;20221;-83
2021/03/26 06:39:38;;;;;;;176.93;98.67;;;;;;;;;;5076507;28;20506;-83
2021/03/26 06:42:22;;;;;;;176.80;99.37;;;;;;;;;;5076053;28;20171;-83
2021/03/26 06:44:57;;;;;;;157.87;87.83;;;;;;;;;;5076575;28;20171;-83
2021/03/26 06:47:28;;;;;;;148.50;82.87;;;;;;;;;;5075991;28;20165;-83
2021/03/26 06:50:00;;;;;;;122.20;70.63;;;;;;;;;;5075422;28;20563;-83
2021/03/26 06:52:40;;;;;;;141.70;80.60;;;;;;;;;;5075398;28;20261;-83
2021/03/26 06:55:08;;;;;;;152.73;87.73;;;;;;;;;;5076716;28;20651;-83
2021/03/26 06:57:42;;;;;;;134.93;82.03;;;;;;;;;;5075775;28;20163;-83
2021/03/26 07:00:14;;;;;;;125.10;73.30;;;;;;;;;;5075043;28;20223;-84
2021/03/26 07:02:58;;;;;;;115.13;68.80;;;;;;;;;;5075669;28;20293;-84
2021/03/26 07:05:52;;;;;;;115.43;68.77;;;;;;;;;;5074056;28;20183;-84
2021/03/26 07:08:40;;;;;;;111.93;66.83;;;;;;;;;;5003910;28;20632;-84
2021/03/26 07:11:24;;;;;;;123.43;72.73;;;;;;;;;;5075961;28;20219;-84
2021/03/26 07:14:09;;;;;;;121.43;72.83;;;;;;;;;;5075253;28;20175;-83
2021/03/26 07:16:52;;;;;;;114.53;72.93;;;;;;;;;;5075677;28;20195;-83
2021/03/26 07:19:36;;;;;;;120.63;72.30;;;;;;;;;;5075137;28;20178;-83
2021/03/26 07:22:23;;;;;;;120.43;77.87;;;;;;;;;;5074013;28;20182;-84
2021/03/26 07:25:07;;;;;;;120.57;73.43;;;;;;;;;;5075036;28;20155;-84
2021/03/26 07:27:51;;;;;;;127.93;77.87;;;;;;;;;;5075491;28;20217;-84
2021/03/26 07:30:35;;;;;;;132.60;83.07;;;;;;;;;;5074653;28;20627;-84
2021/03/26 07:33:15;;;;;;;148.37;86.53;;;;;;;;;;5075127;28;20186;-84
2021/03/26 07:35:59;;;;;;;135.10;81.43;;;;;;;;;;5074505;28;20168;-85
2021/03/26 07:38:24;;;;;;;131.67;83.00;;;;;;;;;;5074691;28;20224;-85
2021/03/26 07:41:08;;;;;;;141.83;89.57;;;;;;;;;;5075001;28;20187;-84
2021/03/26 07:43:37;;;;;;;138.27;86.93;;;;;;;;;;5075142;28;20285;-84
2021/03/26 07:46:05;;;;;;;160.50;93.83;;;;;;;;;;5074533;28;20244;-84
2021/03/26 07:48:48;;;;;;;146.93;89.27;;;;;;;;;;5073244;28;20183;-84
2021/03/26 07:51:19;;;;;;;158.97;95.60;;;;;;;;;;5074497;28;20187;-84
2021/03/26 07:54:03;;;;;;;137.90;89.43;;;;;;;;;;5074257;28;20187;-84
2021/03/26 07:56:41;;;;;;;134.80;83.70;;;;;;;;;;5073386;28;20510;-84
2021/03/26 07:59:25;;;;;;;129.33;80.50;;;;;;;;;;5066484;28;20242;-84
2021/03/26 08:01:53;;;;;;;134.00;84.57;;;;;;;;;;5065153;28;20178;-85
2021/03/26 08:04:19;;;;;;;122.83;78.87;;;;;;;;;;5063768;28;20654;-85
2021/03/26 08:06:50;;;;;;;110.80;73.90;;;;;;;;;;5063028;28;20178;-85
2021/03/26 08:09:34;;;;;;;93.70;61.77;;;;;;;;;;5062804;28;20172;-84
2021/03/26 08:11:59;;;;;;;111.70;71.03;;;;;;;;;;5063508;28;20175;-85
2021/03/26 08:14:32;;;;;;;103.47;67.77;;;;;;;;;;5065272;28;20220;-85
2021/03/26 08:17:02;;;;;;;97.80;61.10;;;;;;;;;;5064913;28;20254;-85
2021/03/26 08:19:35;;;;;;;84.53;56.90;;;;;;;;;;5064342;28;20774;-85
2021/03/26 08:22:01;;;;;;;84.67;55.93;;;;;;;;;;5062326;28;20233;-85
2021/03/26 08:24:29;;;;;;;88.00;56.90;;;;;;;;;;5061538;28;20530;-85
2021/03/26 08:27:13;;;;;;;89.10;57.27;;;;;;;;;;5062993;28;20262;-85
2021/03/26 08:29:46;;;;;;;80.43;52.70;;;;;;;;;;5063684;28;20160;-85
2021/03/26 08:32:30;;;;;;;83.43;53.70;;;;;;;;;;5061831;28;20164;-83
2021/03/26 08:35:14;;;;;;;79.97;53.87;;;;;;;;;;5058913;28;20178;-83
2021/03/26 08:37:58;;;;;;;78.93;52.23;;;;;;;;;;5059819;28;20172;-84
2021/03/26 08:40:38;;;;;;;78.87;51.63;;;;;;;;;;5064949;28;20178;-85
2021/03/26 08:43:05;;;;;;;89.23;56.97;;;;;;;;;;5064768;28;20289;-84
2021/03/26 08:45:36;;;;;;;87.97;56.87;;;;;;;;;;5064571;28;20160;-84
2021/03/26 08:48:07;;;;;;;83.60;53.70;;;;;;;;;;5070330;28;20588;-84
2021/03/26 08:50:36;;;;;;;72.57;50.30;;;;;;;;;;5073448;28;20266;-85
2021/03/26 08:53:12;;;;;;;82.57;54.70;;;;;;;;;;5069030;28;20550;-85
2021/03/26 08:55:40;;;;;;;78.40;54.30;;;;;;;;;;5064920;28;20599;-84
2021/03/26 08:58:06;;;;;;;77.67;51.73;;;;;;;;;;5077912;28;20211;-84
2021/03/26 09:00:46;;;;;;;73.47;51.87;;;;;;;;;;5062594;28;20329;-84
2021/03/26 09:03:27;;;;;;;71.60;48.37;;;;;;;;;;5062255;28;20203;-84
2021/03/26 09:06:11;;;;;;;72.23;51.60;;;;;;;;;;5068040;28;20205;-84
2021/03/26 09:08:53;;;;;;;74.37;49.67;;;;;;;;;;5064137;28;20262;-84
2021/03/26 09:11:18;;;;;;;66.50;48.23;;;;;;;;;;5063442;28;20186;-85
2021/03/26 09:13:44;;;;;;;70.40;49.33;;;;;;;;;;5061655;28;20259;-85
2021/03/26 09:16:16;;;;;;;73.07;51.33;;;;;;;;;;5064133;28;20614;-84
2021/03/26 09:18:44;;;;;;;71.80;51.33;;;;;;;;;;5066325;28;20167;-84
2021/03/26 09:21:19;;;;;;;74.40;51.17;;;;;;;;;;5069856;28;20179;-84
2021/03/26 09:24:03;;;;;;;76.50;51.70;;;;;;;;;;5071345;28;20676;-84
2021/03/26 09:26:44;;;;;;;72.47;49.83;;;;;;;;;;5063831;28;20171;-83
2021/03/26 09:29:18;;;;;;;72.53;49.30;;;;;;;;;;5062519;28;20160;-83
2021/03/26 09:31:47;;;;;;;72.73;51.23;;;;;;;;;;5061650;28;20171;-83
2021/03/26 09:34:21;;;;;;;69.80;48.37;;;;;;;;;;5062394;28;20179;-84
2021/03/26 09:36:51;;;;;;;56.43;40.90;;;;;;;;;;5059583;28;20239;-84
2021/03/26 09:39:17;;;;;;;58.50;40.50;;;;;;;;;;5060178;28;20171;-84
2021/03/26 09:41:55;;;;;;;60.60;42.07;;;;;;;;;;5052296;28;20175;-85
2021/03/26 09:44:39;;;;;;;66.20;44.63;;;;;;;;;;5063707;28;20210;-85
2021/03/26 09:47:04;;;;;;;71.70;48.13;;;;;;;;;;5076892;28;20179;-86
2021/03/26 09:49:33;;;;;;;66.57;46.80;;;;;;;;;;5075501;28;20186;-86
2021/03/26 09:52:17;;;;;;;64.73;45.10;;;;;;;;;;5076454;28;20167;-85
2021/03/26 09:54:52;;;;;;;69.43;48.03;;;;;;;;;;5073345;28;20289;-86
2021/03/26 09:57:20;;;;;;;60.90;45.93;;;;;;;;;;5075829;28;20194;-85
2021/03/26 10:00:01;;;;;;;54.03;39.07;;;;;;;;;;5075833;28;20238;-85
2021/03/26 10:02:35;;;;;;;59.87;41.33;;;;;;;;;;5076794;28;20637;-85
2021/03/26 10:05:05;;;;;;;55.37;43.37;;;;;;;;;;5076797;28;20183;-85
2021/03/26 10:07:43;;;;;;;62.10;46.23;;;;;;;;;;5077181;28;20255;-85
2021/03/26 10:13:01;;;;;;;49.87;37.40;;;;;;;;;;5074731;28;20171;-84
2021/03/26 10:15:41;;;;;;;50.37;37.83;;;;;;;;;;5074624;28;20244;-83
2021/03/26 10:18:09;;;;;;;37.43;27.73;;;;;;;;;;5073094;28;20244;-83
2021/03/26 10:20:35;;;;;;;34.93;27.33;;;;;;;;;;5073023;28;20206;-83
2021/03/26 10:23:04;;;;;;;46.87;34.13;;;;;;;;;;5074077;28;20195;-83
2021/03/26 10:25:32;;;;;;;48.63;34.33;;;;;;;;;;5075221;28;20171;-83
2021/03/26 10:28:04;;;;;;;46.53;35.27;;;;;;;;;;5076151;28;20262;-83
2021/03/26 10:30:36;;;;;;;50.20;34.83;;;;;;;;;;5076349;28;20201;-84
2021/03/26 10:33:06;;;;;;;45.10;33.00;;;;;;;;;;5072797;28;20175;-83
2021/03/26 10:35:31;;;;;;;48.40;36.47;;;;;;;;;;5074355;28;20176;-83
2021/03/26 10:38:01;;;;;;;40.67;30.07;;;;;;;;;;5074139;28;20685;-82
2021/03/26 10:40:27;;;;;;;46.53;33.27;;;;;;;;;;5075369;28;20206;-83
2021/03/26 10:42:58;;;;;;;47.87;33.70;;;;;;;;;;5075443;28;20191;-83
2021/03/26 10:45:39;;;;;;;40.23;26.30;;;;;;;;;;5075957;28;20171;-83
2021/03/26 10:48:08;;;;;;;51.67;36.93;;;;;;;;;;5075571;28;20500;-83
2021/03/26 10:50:44;;;;;;;40.80;28.53;;;;;;;;;;5075823;28;20176;-83
2021/03/26 10:53:18;;;;;;;44.67;31.20;;;;;;;;;;5067370;28;20660;-83
2021/03/26 10:55:45;;;;;;;45.20;32.83;;;;;;;;;;5063295;28;20180;-83
2021/03/26 10:58:17;;;;;;;46.07;32.73;;;;;;;;;;5064798;28;20209;-83
2021/03/26 11:00:45;;;;;;;49.00;32.17;;;;;;;;;;5057692;28;20238;-82
2021/03/26 11:03:11;;;;;;;46.57;34.67;;;;;;;;;;5055453;28;20211;-83
2021/03/26 11:05:36;;;;;;;47.13;34.23;;;;;;;;;;5055140;28;20259;-83
2021/03/26 11:08:01;;;;;;;42.47;31.30;;;;;;;;;;5055115;28;20199;-83
2021/03/26 11:10:44;;;;;;;49.90;32.53;;;;;;;;;;5055431;28;20201;-83
2021/03/26 11:13:15;;;;;;;49.03;33.07;;;;;;;;;;5052983;28;20218;-83
2021/03/26 11:15:46;;;;;;;51.27;34.50;;;;;;;;;;5052170;28;20172;-83
2021/03/26 11:18:12;;;;;;;51.47;33.03;;;;;;;;;;5053107;28;20167;-83
2021/03/26 11:21:00;;;;;;;41.00;28.83;;;;;;;;;;5052416;28;20180;-83
2021/03/26 11:23:27;;;;;;;45.77;30.70;;;;;;;;;;5048330;28;20278;-84
2021/03/26 11:26:05;;;;;;;47.70;30.73;;;;;;;;;;5054911;28;20243;-83
2021/03/26 11:28:47;;;;;;;45.50;31.30;;;;;;;;;;5065914;28;20175;-83
2021/03/26 11:31:16;;;;;;;44.57;31.90;;;;;;;;;;5063262;28;20559;-83
2021/03/26 11:33:41;;;;;;;49.47;33.23;;;;;;;;;;5064828;28;20190;-82
2021/03/26 11:36:33;;;;;;;48.73;33.70;;;;;;;;;;5066015;28;20618;-81
2021/03/26 11:39:00;;;;;;;44.97;28.50;;;;;;;;;;5051124;28;20234;-83
2021/03/26 11:41:32;;;;;;;45.53;34.50;;;;;;;;;;5061922;28;20186;-83
2021/03/26 11:44:01;;;;;;;47.70;32.07;;;;;;;;;;5066844;28;20206;-83
2021/03/26 11:46:26;;;;;;;47.13;32.37;;;;;;;;;;5058450;28;20176;-84
2021/03/26 11:49:11;;;;;;;48.17;33.50;;;;;;;;;;5060687;28;20190;-84
2021/03/26 11:51:36;;;;;;;44.57;30.97;;;;;;;;;;5063517;28;20168;-84
2021/03/26 11:54:08;;;;;;;43.60;31.63;;;;;;;;;;5063209;28;20523;-83
2021/03/26 11:56:36;;;;;;;44.03;31.13;;;;;;;;;;5063148;28;20627;-84
2021/03/26 11:59:20;;;;;;;42.67;30.43;;;;;;;;;;5061546;28;20226;-84
2021/03/26 12:02:04;;;;;;;40.53;29.53;;;;;;;;;;5057749;28;20198;-83
2021/03/26 12:04:30;;;;;;;41.07;26.83;;;;;;;;;;5052824;28;20196;-82
2021/03/26 12:07:15;;;;;;;37.40;26.03;;;;;;;;;;5052595;28;20172;-83
2021/03/26 12:09:51;;;;;;;38.13;26.60;;;;;;;;;;5052730;28;20524;-83
2021/03/26 12:12:19;;;;;;;36.83;27.10;;;;;;;;;;5052696;28;20168;-83
2021/03/26 12:14:51;;;;;;;35.03;25.20;;;;;;;;;;5052363;28;20569;-85
2021/03/26 12:17:19;;;;;;;36.00;26.43;;;;;;;;;;5051351;28;20186;-82
2021/03/26 12:19:45;;;;;;;38.80;26.57;;;;;;;;;;5052478;28;20172;-82
2021/03/26 12:22:30;;;;;;;38.63;26.80;;;;;;;;;;5052260;28;20645;-82
2021/03/26 12:24:57;;;;;;;36.07;25.60;;;;;;;;;;5052182;28;20625;-82
2021/03/26 12:27:35;;;;;;;40.10;27.50;;;;;;;;;;5052265;28;20176;-82
2021/03/26 12:30:06;;;;;;;35.47;26.73;;;;;;;;;;5061113;28;20171;-82
2021/03/26 12:32:37;;;;;;;36.50;25.30;;;;;;;;;;5073480;28;20179;-82
2021/03/26 12:35:08;;;;;;;35.73;26.37;;;;;;;;;;5073387;28;20183;-82
2021/03/26 12:37:41;;;;;;;38.90;27.27;;;;;;;;;;5077774;28;20171;-82
2021/03/26 12:40:19;;;;;;;40.47;29.27;;;;;;;;;;5092179;28;20524;-82
2021/03/26 12:42:46;;;;;;;37.10;26.03;;;;;;;;;;5091842;28;20196;-82
2021/03/26 12:45:17;;;;;;;41.97;29.13;;;;;;;;;;5092123;28;20597;-83
2021/03/26 12:47:46;;;;;;;37.40;26.60;;;;;;;;;;5088063;28;20183;-83
2021/03/26 12:50:30;;;;;;;44.67;29.50;;;;;;;;;;5052059;28;20171;-82
2021/03/26 12:53:02;;;;;;;34.60;25.70;;;;;;;;;;5052622;28;20171;-82
2021/03/26 12:55:27;;;;;;;43.00;27.83;;;;;;;;;;5053524;28;20520;-82
2021/03/26 12:58:07;;;;;;;38.13;27.03;;;;;;;;;;5053479;28;20237;-83
2021/03/26 13:00:33;;;;;;;33.67;25.47;;;;;;;;;;5053019;28;20219;-82
2021/03/26 13:03:18;;;;;;;36.87;26.13;;;;;;;;;;5051997;28;20233;-82
2021/03/26 13:05:46;;;;;;;36.83;26.73;;;;;;;;;;5050300;28;20266;-82
2021/03/26 13:08:14;;;;;;;33.87;25.67;;;;;;;;;;5053035;28;20168;-82
2021/03/26 13:10:44;;;;;;;38.90;26.87;;;;;;;;;;5053235;28;20627;-82
2021/03/26 13:13:28;;;;;;;36.00;25.77;;;;;;;;;;5053184;28;20168;-82
2021/03/26 13:16:12;;;;;;;38.97;28.23;;;;;;;;;;5053302;28;20203;-83
2021/03/26 13:18:57;;;;;;;34.33;24.70;;;;;;;;;;5053051;28;20168;-82
2021/03/26 13:21:38;;;;;;;32.90;23.83;;;;;;;;;;5073664;28;20260;-83
2021/03/26 13:24:08;;;;;;;34.47;24.37;;;;;;;;;;5064327;28;20214;-82
2021/03/26 13:26:36;;;;;;;37.53;25.23;;;;;;;;;;5057411;28;20160;-83
2021/03/26 13:29:20;;;;;;;37.43;26.70;;;;;;;;;;5057014;28;20176;-82
2021/03/26 13:31:46;;;;;;;34.10;25.47;;;;;;;;;;5058960;28;20649;-83
2021/03/26 13:34:17;;;;;;;35.53;25.43;;;;;;;;;;5077122;28;20199;-82
2021/03/26 13:37:02;;;;;;;40.67;27.47;;;;;;;;;;5077116;28;20185;-82
2021/03/26 13:39:27;;;;;;;35.23;26.63;;;;;;;;;;5076100;28;20191;-82
2021/03/26 13:41:56;;;;;;;36.47;26.63;;;;;;;;;;5076400;28;20171;-85
2021/03/26 13:44:34;;;;;;;37.53;26.97;;;;;;;;;;5075896;28;20198;-85
2021/03/26 13:47:11;;;;;;;41.30;28.50;;;;;;;;;;5074815;28;20665;-84
2021/03/26 13:49:43;;;;;;;36.70;26.47;;;;;;;;;;5075432;28;20192;-83
2021/03/26 13:52:16;;;;;;;38.70;25.33;;;;;;;;;;5075226;28;20151;-83
2021/03/26 13:54:44;;;;;;;36.50;26.47;;;;;;;;;;5076505;28;20328;-84
2021/03/26 13:57:29;;;;;;;34.47;25.37;;;;;;;;;;5076211;28;20545;-83
2021/03/26 14:00:06;;;;;;;34.10;24.90;;;;;;;;;;5074444;28;20230;-84
2021/03/26 14:02:35;;;;;;;33.90;25.03;;;;;;;;;;5069720;28;20199;-84
2021/03/26 14:05:01;;;;;;;35.47;24.27;;;;;;;;;;5069498;28;20175;-84
2021/03/26 14:07:30;;;;;;;34.73;25.20;;;;;;;;;;5074137;28;20179;-84
2021/03/26 14:10:14;;;;;;;34.87;25.10;;;;;;;;;;5075380;28;20175;-84
2021/03/26 14:13:02;;;;;;;50.23;30.93;;;;;;;;;;5057452;28;20314;-84
2021/03/26 14:18:26;;;;;;;38.80;27.10;;;;;;;;;;5049523;28;20549;-86
2021/03/26 14:20:53;;;;;;;40.17;27.13;;;;;;;;;;5075361;28;20217;-86
2021/03/26 14:23:24;;;;;;;41.67;30.23;;;;;;;;;;5094816;28;20198;-85
2021/03/26 14:25:58;;;;;;;60.53;35.80;;;;;;;;;;5095460;28;20166;-85
2021/03/26 14:28:29;;;;;;;50.00;33.10;;;;;;;;;;5096393;28;20198;-85
2021/03/26 14:31:06;;;;;;;40.13;27.50;;;;;;;;;;5096331;28;20186;-83
2021/03/26 14:33:41;;;;;;;42.73;27.77;;;;;;;;;;5084979;28;20174;-84
2021/03/26 14:36:12;;;;;;;42.40;28.20;;;;;;;;;;5075479;28;20179;-84
2021/03/26 14:38:46;;;;;;;37.70;26.17;;;;;;;;;;5075779;28;20178;-85
2021/03/26 14:41:21;;;;;;;40.07;26.17;;;;;;;;;;5075727;28;20170;-85
2021/03/26 14:43:47;;;;;;;40.03;28.47;;;;;;;;;;5075663;28;20200;-85
2021/03/26 14:46:14;;;;;;;40.57;27.10;;;;;;;;;;5074480;28;20172;-84